sensor_id;sensor_type;location;lat;lon;timestamp;P1;durP1;ratioP1;P2;durP2;ratioP2
5507;SDS011;2776;51.046;6.772;2022-12-18T00:00:08;15.13;;;8.50;;
5507;SDS011;2776;51.046;6.772;2022-12-18T00:02:35;15.37;;;8.73;;
5507;SDS011;2776;51.046;6.772;2022-12-18T00:05:02;16.80;;;9.20;;
5507;SDS011;2776;51.046;6.772;2022-12-18T00:07:29;14.10;;;8.83;;
5507;SDS011;2776;51.046;6.772;2022-12-18T00:09:56;14.60;;;8.57;;
5507;SDS011;2776;51.046;6.772;2022-12-18T00:12:22;17.70;;;8.83;;
5507;SDS011;2776;51.046;6.772;2022-12-18T00:14:49;16.67;;;10.10;;
5507;SDS011;2776;51.046;6.772;2022-12-18T00:17:17;14.53;;;9.50;;
5507;SDS011;2776;51.046;6.772;2022-12-18T00:19:44;15.30;;;9.23;;
5507;SDS011;2776;51.046;6.772;2022-12-18T00:22:10;15.43;;;9.23;;
5507;SDS011;2776;51.046;6.772;2022-12-18T00:24:37;15.10;;;8.57;;
5507;SDS011;2776;51.046;6.772;2022-12-18T00:27:04;17.23;;;9.30;;
5507;SDS011;2776;51.046;6.772;2022-12-18T00:29:31;17.00;;;9.10;;
5507;SDS011;2776;51.046;6.772;2022-12-18T00:31:57;14.73;;;8.83;;
5507;SDS011;2776;51.046;6.772;2022-12-18T00:34:25;14.20;;;9.63;;
5507;SDS011;2776;51.046;6.772;2022-12-18T00:36:52;12.40;;;7.97;;
5507;SDS011;2776;51.046;6.772;2022-12-18T00:39:19;19.57;;;8.83;;
5507;SDS011;2776;51.046;6.772;2022-12-18T00:41:46;15.43;;;8.77;;
5507;SDS011;2776;51.046;6.772;2022-12-18T00:44:30;16.70;;;9.03;;
5507;SDS011;2776;51.046;6.772;2022-12-18T00:46:57;13.13;;;7.97;;
5507;SDS011;2776;51.046;6.772;2022-12-18T00:49:23;15.73;;;9.27;;
5507;SDS011;2776;51.046;6.772;2022-12-18T00:51:51;15.97;;;8.87;;
5507;SDS011;2776;51.046;6.772;2022-12-18T00:54:21;18.20;;;9.97;;
5507;SDS011;2776;51.046;6.772;2022-12-18T00:56:48;17.73;;;8.97;;
5507;SDS011;2776;51.046;6.772;2022-12-18T00:59:14;15.27;;;8.70;;
5507;SDS011;2776;51.046;6.772;2022-12-18T01:01:41;16.07;;;9.20;;
5507;SDS011;2776;51.046;6.772;2022-12-18T01:04:08;16.00;;;8.90;;
5507;SDS011;2776;51.046;6.772;2022-12-18T01:06:36;16.03;;;8.93;;
5507;SDS011;2776;51.046;6.772;2022-12-18T01:09:03;16.87;;;8.47;;
5507;SDS011;2776;51.046;6.772;2022-12-18T01:11:30;16.03;;;8.97;;
5507;SDS011;2776;51.046;6.772;2022-12-18T01:13:57;16.53;;;8.90;;
5507;SDS011;2776;51.046;6.772;2022-12-18T01:16:26;17.10;;;9.10;;
5507;SDS011;2776;51.046;6.772;2022-12-18T01:18:53;16.97;;;8.27;;
5507;SDS011;2776;51.046;6.772;2022-12-18T01:21:21;13.17;;;7.80;;
5507;SDS011;2776;51.046;6.772;2022-12-18T01:23:53;15.10;;;9.33;;
5507;SDS011;2776;51.046;6.772;2022-12-18T01:26:21;17.30;;;9.13;;
5507;SDS011;2776;51.046;6.772;2022-12-18T01:28:48;15.17;;;9.47;;
5507;SDS011;2776;51.046;6.772;2022-12-18T01:31:16;16.67;;;8.33;;
5507;SDS011;2776;51.046;6.772;2022-12-18T01:33:44;15.23;;;8.77;;
5507;SDS011;2776;51.046;6.772;2022-12-18T01:36:15;17.83;;;9.33;;
5507;SDS011;2776;51.046;6.772;2022-12-18T01:38:43;14.20;;;8.73;;
5507;SDS011;2776;51.046;6.772;2022-12-18T01:41:11;13.57;;;8.50;;
5507;SDS011;2776;51.046;6.772;2022-12-18T01:43:46;20.83;;;9.93;;
5507;SDS011;2776;51.046;6.772;2022-12-18T01:46:15;17.93;;;9.93;;
5507;SDS011;2776;51.046;6.772;2022-12-18T01:48:42;12.40;;;8.03;;
5507;SDS011;2776;51.046;6.772;2022-12-18T01:51:11;17.73;;;9.20;;
5507;SDS011;2776;51.046;6.772;2022-12-18T01:53:38;18.83;;;9.47;;
5507;SDS011;2776;51.046;6.772;2022-12-18T01:56:07;16.17;;;8.90;;
5507;SDS011;2776;51.046;6.772;2022-12-18T01:58:37;16.50;;;9.13;;
5507;SDS011;2776;51.046;6.772;2022-12-18T02:01:11;18.70;;;9.97;;
5507;SDS011;2776;51.046;6.772;2022-12-18T02:03:40;13.93;;;8.93;;
5507;SDS011;2776;51.046;6.772;2022-12-18T02:06:09;14.73;;;8.80;;
5507;SDS011;2776;51.046;6.772;2022-12-18T02:08:43;18.63;;;9.80;;
5507;SDS011;2776;51.046;6.772;2022-12-18T02:11:17;17.23;;;10.07;;
5507;SDS011;2776;51.046;6.772;2022-12-18T02:13:53;17.00;;;9.90;;
5507;SDS011;2776;51.046;6.772;2022-12-18T02:16:29;17.00;;;8.80;;
5507;SDS011;2776;51.046;6.772;2022-12-18T02:19:05;14.47;;;8.73;;
5507;SDS011;2776;51.046;6.772;2022-12-18T02:21:40;19.83;;;10.43;;
5507;SDS011;2776;51.046;6.772;2022-12-18T02:24:18;16.00;;;10.43;;
5507;SDS011;2776;51.046;6.772;2022-12-18T02:26:56;16.73;;;9.57;;
5507;SDS011;2776;51.046;6.772;2022-12-18T02:29:26;18.03;;;9.97;;
5507;SDS011;2776;51.046;6.772;2022-12-18T02:31:57;14.30;;;9.60;;
5507;SDS011;2776;51.046;6.772;2022-12-18T02:34:29;16.10;;;9.47;;
5507;SDS011;2776;51.046;6.772;2022-12-18T02:36:59;16.40;;;9.70;;
5507;SDS011;2776;51.046;6.772;2022-12-18T02:39:29;19.83;;;10.10;;
5507;SDS011;2776;51.046;6.772;2022-12-18T02:41:59;17.13;;;11.07;;
5507;SDS011;2776;51.046;6.772;2022-12-18T02:44:33;16.90;;;9.80;;
5507;SDS011;2776;51.046;6.772;2022-12-18T02:47:00;13.33;;;8.70;;
5507;SDS011;2776;51.046;6.772;2022-12-18T02:49:29;16.43;;;8.63;;
5507;SDS011;2776;51.046;6.772;2022-12-18T02:52:02;15.90;;;8.80;;
5507;SDS011;2776;51.046;6.772;2022-12-18T02:54:38;16.20;;;8.97;;
5507;SDS011;2776;51.046;6.772;2022-12-18T02:57:20;15.20;;;9.00;;
5507;SDS011;2776;51.046;6.772;2022-12-18T02:59:56;13.80;;;9.00;;
5507;SDS011;2776;51.046;6.772;2022-12-18T03:02:28;16.23;;;9.47;;
5507;SDS011;2776;51.046;6.772;2022-12-18T03:05:02;14.73;;;9.40;;
5507;SDS011;2776;51.046;6.772;2022-12-18T03:07:35;16.23;;;8.90;;
5507;SDS011;2776;51.046;6.772;2022-12-18T03:10:05;14.83;;;9.03;;
5507;SDS011;2776;51.046;6.772;2022-12-18T03:12:37;16.17;;;8.73;;
5507;SDS011;2776;51.046;6.772;2022-12-18T03:15:09;13.87;;;9.47;;
5507;SDS011;2776;51.046;6.772;2022-12-18T03:17:40;15.30;;;9.20;;
5507;SDS011;2776;51.046;6.772;2022-12-18T03:20:10;16.20;;;8.93;;
5507;SDS011;2776;51.046;6.772;2022-12-18T03:22:41;16.77;;;9.27;;
5507;SDS011;2776;51.046;6.772;2022-12-18T03:25:10;15.07;;;9.07;;
5507;SDS011;2776;51.046;6.772;2022-12-18T03:27:42;16.77;;;8.83;;
5507;SDS011;2776;51.046;6.772;2022-12-18T03:30:12;14.63;;;8.70;;
5507;SDS011;2776;51.046;6.772;2022-12-18T03:32:42;15.77;;;9.40;;
5507;SDS011;2776;51.046;6.772;2022-12-18T03:35:15;15.43;;;8.27;;
5507;SDS011;2776;51.046;6.772;2022-12-18T03:37:46;14.27;;;8.43;;
5507;SDS011;2776;51.046;6.772;2022-12-18T03:40:13;16.73;;;10.03;;
5507;SDS011;2776;51.046;6.772;2022-12-18T03:42:43;14.80;;;8.83;;
5507;SDS011;2776;51.046;6.772;2022-12-18T03:45:18;13.10;;;8.33;;
5507;SDS011;2776;51.046;6.772;2022-12-18T03:47:53;14.20;;;8.57;;
5507;SDS011;2776;51.046;6.772;2022-12-18T03:50:27;14.20;;;8.70;;
5507;SDS011;2776;51.046;6.772;2022-12-18T03:53:04;14.37;;;8.63;;
5507;SDS011;2776;51.046;6.772;2022-12-18T03:55:39;15.63;;;8.93;;
5507;SDS011;2776;51.046;6.772;2022-12-18T03:58:08;15.67;;;8.90;;
5507;SDS011;2776;51.046;6.772;2022-12-18T04:00:38;17.40;;;9.27;;
5507;SDS011;2776;51.046;6.772;2022-12-18T04:03:06;21.53;;;9.50;;
5507;SDS011;2776;51.046;6.772;2022-12-18T04:05:34;15.37;;;9.10;;
5507;SDS011;2776;51.046;6.772;2022-12-18T04:08:03;18.63;;;8.87;;
5507;SDS011;2776;51.046;6.772;2022-12-18T04:10:31;14.50;;;9.07;;
5507;SDS011;2776;51.046;6.772;2022-12-18T04:13:04;16.23;;;9.27;;
5507;SDS011;2776;51.046;6.772;2022-12-18T04:15:33;16.57;;;9.93;;
5507;SDS011;2776;51.046;6.772;2022-12-18T04:18:01;16.63;;;9.80;;
5507;SDS011;2776;51.046;6.772;2022-12-18T04:20:28;15.10;;;9.37;;
5507;SDS011;2776;51.046;6.772;2022-12-18T04:22:55;19.27;;;9.77;;
5507;SDS011;2776;51.046;6.772;2022-12-18T04:25:21;16.20;;;8.83;;
5507;SDS011;2776;51.046;6.772;2022-12-18T04:27:48;14.70;;;9.53;;
5507;SDS011;2776;51.046;6.772;2022-12-18T04:30:15;16.50;;;9.13;;
5507;SDS011;2776;51.046;6.772;2022-12-18T04:32:43;17.27;;;9.20;;
5507;SDS011;2776;51.046;6.772;2022-12-18T04:35:10;14.50;;;9.30;;
5507;SDS011;2776;51.046;6.772;2022-12-18T04:37:37;14.07;;;8.83;;
5507;SDS011;2776;51.046;6.772;2022-12-18T04:40:04;15.43;;;9.13;;
5507;SDS011;2776;51.046;6.772;2022-12-18T04:42:31;14.60;;;8.57;;
5507;SDS011;2776;51.046;6.772;2022-12-18T04:44:58;15.87;;;9.07;;
5507;SDS011;2776;51.046;6.772;2022-12-18T04:47:25;15.90;;;9.73;;
5507;SDS011;2776;51.046;6.772;2022-12-18T04:49:53;15.63;;;9.10;;
5507;SDS011;2776;51.046;6.772;2022-12-18T04:52:19;16.37;;;9.50;;
5507;SDS011;2776;51.046;6.772;2022-12-18T04:54:46;15.43;;;10.27;;
5507;SDS011;2776;51.046;6.772;2022-12-18T04:57:13;15.23;;;8.97;;
5507;SDS011;2776;51.046;6.772;2022-12-18T04:59:40;20.10;;;10.73;;
5507;SDS011;2776;51.046;6.772;2022-12-18T05:02:06;15.90;;;9.47;;
5507;SDS011;2776;51.046;6.772;2022-12-18T05:04:33;18.80;;;10.13;;
5507;SDS011;2776;51.046;6.772;2022-12-18T05:07:01;15.80;;;9.60;;
5507;SDS011;2776;51.046;6.772;2022-12-18T05:09:28;17.70;;;11.00;;
5507;SDS011;2776;51.046;6.772;2022-12-18T05:11:55;17.80;;;10.17;;
5507;SDS011;2776;51.046;6.772;2022-12-18T05:14:22;13.40;;;9.10;;
5507;SDS011;2776;51.046;6.772;2022-12-18T05:16:49;13.43;;;9.77;;
5507;SDS011;2776;51.046;6.772;2022-12-18T05:19:15;18.73;;;10.33;;
5507;SDS011;2776;51.046;6.772;2022-12-18T05:21:43;18.37;;;10.80;;
5507;SDS011;2776;51.046;6.772;2022-12-18T05:24:11;15.67;;;9.73;;
5507;SDS011;2776;51.046;6.772;2022-12-18T05:26:37;14.83;;;9.27;;
5507;SDS011;2776;51.046;6.772;2022-12-18T05:29:04;16.90;;;9.80;;
5507;SDS011;2776;51.046;6.772;2022-12-18T05:31:31;17.37;;;10.67;;
5507;SDS011;2776;51.046;6.772;2022-12-18T05:33:58;14.00;;;9.10;;
5507;SDS011;2776;51.046;6.772;2022-12-18T05:36:24;15.83;;;10.17;;
5507;SDS011;2776;51.046;6.772;2022-12-18T05:38:51;18.43;;;8.67;;
5507;SDS011;2776;51.046;6.772;2022-12-18T05:41:19;16.63;;;10.70;;
5507;SDS011;2776;51.046;6.772;2022-12-18T05:43:46;15.40;;;9.77;;
5507;SDS011;2776;51.046;6.772;2022-12-18T05:46:14;20.60;;;9.37;;
5507;SDS011;2776;51.046;6.772;2022-12-18T05:48:42;15.50;;;8.43;;
5507;SDS011;2776;51.046;6.772;2022-12-18T05:51:10;15.73;;;8.57;;
5507;SDS011;2776;51.046;6.772;2022-12-18T05:53:39;16.37;;;9.00;;
5507;SDS011;2776;51.046;6.772;2022-12-18T05:56:07;15.57;;;9.23;;
5507;SDS011;2776;51.046;6.772;2022-12-18T05:58:36;15.90;;;9.60;;
5507;SDS011;2776;51.046;6.772;2022-12-18T06:01:07;15.87;;;9.37;;
5507;SDS011;2776;51.046;6.772;2022-12-18T06:03:35;15.63;;;9.83;;
5507;SDS011;2776;51.046;6.772;2022-12-18T06:06:02;16.57;;;9.90;;
5507;SDS011;2776;51.046;6.772;2022-12-18T06:08:29;16.47;;;9.43;;
5507;SDS011;2776;51.046;6.772;2022-12-18T06:10:56;19.93;;;10.43;;
5507;SDS011;2776;51.046;6.772;2022-12-18T06:13:22;17.20;;;9.80;;
5507;SDS011;2776;51.046;6.772;2022-12-18T06:15:50;18.20;;;10.27;;
5507;SDS011;2776;51.046;6.772;2022-12-18T06:18:17;15.63;;;10.33;;
5507;SDS011;2776;51.046;6.772;2022-12-18T06:20:44;16.63;;;9.57;;
5507;SDS011;2776;51.046;6.772;2022-12-18T06:23:11;16.47;;;10.13;;
5507;SDS011;2776;51.046;6.772;2022-12-18T06:25:38;15.57;;;9.60;;
5507;SDS011;2776;51.046;6.772;2022-12-18T06:28:05;15.53;;;9.40;;
5507;SDS011;2776;51.046;6.772;2022-12-18T06:30:32;14.63;;;9.53;;
5507;SDS011;2776;51.046;6.772;2022-12-18T06:33:00;16.87;;;10.20;;
5507;SDS011;2776;51.046;6.772;2022-12-18T06:35:26;18.47;;;9.77;;
5507;SDS011;2776;51.046;6.772;2022-12-18T06:37:53;16.27;;;10.13;;
5507;SDS011;2776;51.046;6.772;2022-12-18T06:40:20;20.17;;;11.10;;
5507;SDS011;2776;51.046;6.772;2022-12-18T06:42:47;19.83;;;11.27;;
5507;SDS011;2776;51.046;6.772;2022-12-18T06:45:13;14.30;;;9.20;;
5507;SDS011;2776;51.046;6.772;2022-12-18T06:47:41;20.30;;;11.07;;
5507;SDS011;2776;51.046;6.772;2022-12-18T06:50:10;18.40;;;10.87;;
5507;SDS011;2776;51.046;6.772;2022-12-18T06:52:37;18.80;;;10.53;;
5507;SDS011;2776;51.046;6.772;2022-12-18T06:55:05;13.80;;;9.37;;
5507;SDS011;2776;51.046;6.772;2022-12-18T06:57:36;14.57;;;9.17;;
5507;SDS011;2776;51.046;6.772;2022-12-18T07:00:06;16.13;;;9.30;;
5507;SDS011;2776;51.046;6.772;2022-12-18T07:02:34;15.63;;;9.43;;
5507;SDS011;2776;51.046;6.772;2022-12-18T07:05:00;16.90;;;10.30;;
5507;SDS011;2776;51.046;6.772;2022-12-18T07:07:29;15.03;;;9.77;;
5507;SDS011;2776;51.046;6.772;2022-12-18T07:09:55;16.20;;;9.70;;
5507;SDS011;2776;51.046;6.772;2022-12-18T07:12:22;14.90;;;9.50;;
5507;SDS011;2776;51.046;6.772;2022-12-18T07:14:49;17.73;;;10.67;;
5507;SDS011;2776;51.046;6.772;2022-12-18T07:17:15;14.53;;;8.70;;
5507;SDS011;2776;51.046;6.772;2022-12-18T07:19:42;17.27;;;10.50;;
5507;SDS011;2776;51.046;6.772;2022-12-18T07:22:09;18.23;;;9.27;;
5507;SDS011;2776;51.046;6.772;2022-12-18T07:24:37;17.23;;;8.87;;
5507;SDS011;2776;51.046;6.772;2022-12-18T07:27:04;17.30;;;9.63;;
5507;SDS011;2776;51.046;6.772;2022-12-18T07:29:30;16.43;;;8.83;;
5507;SDS011;2776;51.046;6.772;2022-12-18T07:31:57;20.00;;;11.40;;
5507;SDS011;2776;51.046;6.772;2022-12-18T07:34:24;14.70;;;8.97;;
5507;SDS011;2776;51.046;6.772;2022-12-18T07:36:51;16.77;;;9.73;;
5507;SDS011;2776;51.046;6.772;2022-12-18T07:39:17;15.03;;;9.60;;
5507;SDS011;2776;51.046;6.772;2022-12-18T07:41:45;15.97;;;9.73;;
5507;SDS011;2776;51.046;6.772;2022-12-18T07:44:32;18.40;;;10.77;;
5507;SDS011;2776;51.046;6.772;2022-12-18T07:46:59;15.57;;;9.33;;
5507;SDS011;2776;51.046;6.772;2022-12-18T07:49:25;17.57;;;10.23;;
5507;SDS011;2776;51.046;6.772;2022-12-18T07:51:53;18.67;;;10.13;;
5507;SDS011;2776;51.046;6.772;2022-12-18T07:54:21;16.30;;;10.00;;
5507;SDS011;2776;51.046;6.772;2022-12-18T07:56:49;18.13;;;10.83;;
5507;SDS011;2776;51.046;6.772;2022-12-18T07:59:16;14.90;;;9.57;;
5507;SDS011;2776;51.046;6.772;2022-12-18T08:01:43;18.03;;;10.27;;
5507;SDS011;2776;51.046;6.772;2022-12-18T08:04:10;16.43;;;10.27;;
5507;SDS011;2776;51.046;6.772;2022-12-18T08:06:36;17.43;;;10.17;;
5507;SDS011;2776;51.046;6.772;2022-12-18T08:09:03;16.50;;;10.30;;
5507;SDS011;2776;51.046;6.772;2022-12-18T08:11:30;15.57;;;10.13;;
5507;SDS011;2776;51.046;6.772;2022-12-18T08:13:58;16.47;;;10.40;;
5507;SDS011;2776;51.046;6.772;2022-12-18T08:16:26;17.20;;;10.40;;
5507;SDS011;2776;51.046;6.772;2022-12-18T08:18:53;17.73;;;10.57;;
5507;SDS011;2776;51.046;6.772;2022-12-18T08:21:21;19.23;;;11.37;;
5507;SDS011;2776;51.046;6.772;2022-12-18T08:23:49;16.87;;;10.43;;
5507;SDS011;2776;51.046;6.772;2022-12-18T08:26:16;18.83;;;10.07;;
5507;SDS011;2776;51.046;6.772;2022-12-18T08:28:43;15.47;;;9.43;;
5507;SDS011;2776;51.046;6.772;2022-12-18T08:31:11;16.37;;;9.63;;
5507;SDS011;2776;51.046;6.772;2022-12-18T08:33:38;15.77;;;9.47;;
5507;SDS011;2776;51.046;6.772;2022-12-18T08:36:06;16.57;;;9.33;;
5507;SDS011;2776;51.046;6.772;2022-12-18T08:38:34;16.17;;;9.93;;
5507;SDS011;2776;51.046;6.772;2022-12-18T08:41:01;16.90;;;10.13;;
5507;SDS011;2776;51.046;6.772;2022-12-18T08:43:29;15.67;;;9.90;;
5507;SDS011;2776;51.046;6.772;2022-12-18T08:46:15;15.33;;;8.37;;
5507;SDS011;2776;51.046;6.772;2022-12-18T08:48:42;16.87;;;9.87;;
5507;SDS011;2776;51.046;6.772;2022-12-18T08:51:09;15.07;;;9.83;;
5507;SDS011;2776;51.046;6.772;2022-12-18T08:53:36;16.00;;;10.70;;
5507;SDS011;2776;51.046;6.772;2022-12-18T08:56:03;16.13;;;10.03;;
5507;SDS011;2776;51.046;6.772;2022-12-18T08:58:31;17.90;;;10.40;;
5507;SDS011;2776;51.046;6.772;2022-12-18T09:00:59;15.73;;;10.13;;
5507;SDS011;2776;51.046;6.772;2022-12-18T09:03:28;17.93;;;10.03;;
5507;SDS011;2776;51.046;6.772;2022-12-18T09:05:54;16.47;;;10.17;;
5507;SDS011;2776;51.046;6.772;2022-12-18T09:08:21;12.73;;;8.97;;
5507;SDS011;2776;51.046;6.772;2022-12-18T09:10:49;15.77;;;10.00;;
5507;SDS011;2776;51.046;6.772;2022-12-18T09:13:16;19.13;;;10.97;;
5507;SDS011;2776;51.046;6.772;2022-12-18T09:15:44;15.13;;;9.50;;
5507;SDS011;2776;51.046;6.772;2022-12-18T09:18:12;13.57;;;8.83;;
5507;SDS011;2776;51.046;6.772;2022-12-18T09:20:41;17.10;;;10.53;;
5507;SDS011;2776;51.046;6.772;2022-12-18T09:23:08;16.07;;;9.50;;
5507;SDS011;2776;51.046;6.772;2022-12-18T09:25:36;14.37;;;10.23;;
5507;SDS011;2776;51.046;6.772;2022-12-18T09:28:04;15.60;;;8.47;;
5507;SDS011;2776;51.046;6.772;2022-12-18T09:30:36;17.83;;;10.17;;
5507;SDS011;2776;51.046;6.772;2022-12-18T09:33:04;18.33;;;10.73;;
5507;SDS011;2776;51.046;6.772;2022-12-18T09:35:30;15.30;;;9.63;;
5507;SDS011;2776;51.046;6.772;2022-12-18T09:37:58;16.77;;;10.90;;
5507;SDS011;2776;51.046;6.772;2022-12-18T09:40:26;14.27;;;8.53;;
5507;SDS011;2776;51.046;6.772;2022-12-18T09:42:59;13.73;;;8.57;;
5507;SDS011;2776;51.046;6.772;2022-12-18T09:45:29;14.97;;;9.30;;
5507;SDS011;2776;51.046;6.772;2022-12-18T09:48:04;19.80;;;10.27;;
5507;SDS011;2776;51.046;6.772;2022-12-18T09:50:36;14.77;;;9.33;;
5507;SDS011;2776;51.046;6.772;2022-12-18T09:53:10;18.00;;;10.10;;
5507;SDS011;2776;51.046;6.772;2022-12-18T09:55:42;19.17;;;11.40;;
5507;SDS011;2776;51.046;6.772;2022-12-18T09:58:14;15.80;;;10.00;;
5507;SDS011;2776;51.046;6.772;2022-12-18T10:00:44;15.07;;;9.47;;
5507;SDS011;2776;51.046;6.772;2022-12-18T10:03:12;13.93;;;9.40;;
5507;SDS011;2776;51.046;6.772;2022-12-18T10:05:41;12.43;;;7.40;;
5507;SDS011;2776;51.046;6.772;2022-12-18T10:08:20;13.97;;;8.80;;
5507;SDS011;2776;51.046;6.772;2022-12-18T10:10:52;13.73;;;8.97;;
5507;SDS011;2776;51.046;6.772;2022-12-18T10:13:24;14.83;;;9.80;;
5507;SDS011;2776;51.046;6.772;2022-12-18T10:16:02;14.17;;;9.47;;
5507;SDS011;2776;51.046;6.772;2022-12-18T10:18:39;13.97;;;8.53;;
5507;SDS011;2776;51.046;6.772;2022-12-18T10:21:23;13.13;;;8.97;;
5507;SDS011;2776;51.046;6.772;2022-12-18T10:23:58;13.60;;;9.70;;
5507;SDS011;2776;51.046;6.772;2022-12-18T10:26:31;13.10;;;8.90;;
5507;SDS011;2776;51.046;6.772;2022-12-18T10:28:58;14.17;;;8.30;;
5507;SDS011;2776;51.046;6.772;2022-12-18T10:31:26;14.37;;;8.47;;
5507;SDS011;2776;51.046;6.772;2022-12-18T10:33:53;13.93;;;9.57;;
5507;SDS011;2776;51.046;6.772;2022-12-18T10:36:20;12.83;;;8.77;;
5507;SDS011;2776;51.046;6.772;2022-12-18T10:38:47;13.27;;;8.10;;
5507;SDS011;2776;51.046;6.772;2022-12-18T10:41:24;15.23;;;9.43;;
5507;SDS011;2776;51.046;6.772;2022-12-18T10:44:11;15.80;;;9.47;;
5507;SDS011;2776;51.046;6.772;2022-12-18T10:46:42;14.87;;;9.30;;
5507;SDS011;2776;51.046;6.772;2022-12-18T10:49:18;14.33;;;9.60;;
5507;SDS011;2776;51.046;6.772;2022-12-18T10:51:48;18.23;;;11.27;;
5507;SDS011;2776;51.046;6.772;2022-12-18T10:54:16;17.20;;;10.90;;
5507;SDS011;2776;51.046;6.772;2022-12-18T10:56:46;13.37;;;9.30;;
5507;SDS011;2776;51.046;6.772;2022-12-18T10:59:14;12.70;;;9.43;;
5507;SDS011;2776;51.046;6.772;2022-12-18T11:01:46;17.50;;;9.63;;
5507;SDS011;2776;51.046;6.772;2022-12-18T11:04:19;18.47;;;10.00;;
5507;SDS011;2776;51.046;6.772;2022-12-18T11:06:54;13.57;;;8.97;;
5507;SDS011;2776;51.046;6.772;2022-12-18T11:09:26;15.23;;;10.37;;
5507;SDS011;2776;51.046;6.772;2022-12-18T11:11:56;13.77;;;9.07;;
5507;SDS011;2776;51.046;6.772;2022-12-18T11:14:25;15.23;;;8.53;;
5507;SDS011;2776;51.046;6.772;2022-12-18T11:16:53;17.73;;;9.33;;
5507;SDS011;2776;51.046;6.772;2022-12-18T11:19:26;15.40;;;9.77;;
5507;SDS011;2776;51.046;6.772;2022-12-18T11:21:59;13.13;;;9.13;;
5507;SDS011;2776;51.046;6.772;2022-12-18T11:24:29;12.90;;;9.10;;
5507;SDS011;2776;51.046;6.772;2022-12-18T11:27:00;14.97;;;9.03;;
5507;SDS011;2776;51.046;6.772;2022-12-18T11:29:30;14.77;;;9.10;;
5507;SDS011;2776;51.046;6.772;2022-12-18T11:34:53;14.97;;;9.37;;
5507;SDS011;2776;51.046;6.772;2022-12-18T11:37:24;13.70;;;8.87;;
5507;SDS011;2776;51.046;6.772;2022-12-18T11:39:51;14.63;;;8.90;;
5507;SDS011;2776;51.046;6.772;2022-12-18T11:42:24;16.13;;;9.70;;
5507;SDS011;2776;51.046;6.772;2022-12-18T11:44:57;15.40;;;9.03;;
5507;SDS011;2776;51.046;6.772;2022-12-18T11:47:28;16.57;;;9.37;;
5507;SDS011;2776;51.046;6.772;2022-12-18T11:50:02;15.33;;;9.67;;
5507;SDS011;2776;51.046;6.772;2022-12-18T11:52:33;14.07;;;9.23;;
5507;SDS011;2776;51.046;6.772;2022-12-18T11:55:04;15.07;;;9.13;;
5507;SDS011;2776;51.046;6.772;2022-12-18T11:57:39;15.67;;;10.33;;
5507;SDS011;2776;51.046;6.772;2022-12-18T12:00:19;15.50;;;9.90;;
5507;SDS011;2776;51.046;6.772;2022-12-18T12:02:59;15.73;;;10.67;;
5507;SDS011;2776;51.046;6.772;2022-12-18T12:05:49;17.23;;;11.00;;
5507;SDS011;2776;51.046;6.772;2022-12-18T12:08:26;13.63;;;9.63;;
5507;SDS011;2776;51.046;6.772;2022-12-18T12:11:01;15.70;;;10.90;;
5507;SDS011;2776;51.046;6.772;2022-12-18T12:13:39;17.90;;;11.67;;
5507;SDS011;2776;51.046;6.772;2022-12-18T12:16:15;19.40;;;10.47;;
5507;SDS011;2776;51.046;6.772;2022-12-18T12:19:02;15.20;;;10.37;;
5507;SDS011;2776;51.046;6.772;2022-12-18T12:21:42;16.27;;;10.67;;
5507;SDS011;2776;51.046;6.772;2022-12-18T12:24:21;15.97;;;10.17;;
5507;SDS011;2776;51.046;6.772;2022-12-18T12:26:59;16.67;;;11.07;;
5507;SDS011;2776;51.046;6.772;2022-12-18T12:29:37;20.07;;;12.03;;
5507;SDS011;2776;51.046;6.772;2022-12-18T12:32:16;17.33;;;10.03;;
5507;SDS011;2776;51.046;6.772;2022-12-18T12:34:54;14.03;;;8.73;;
5507;SDS011;2776;51.046;6.772;2022-12-18T12:37:34;17.43;;;11.03;;
5507;SDS011;2776;51.046;6.772;2022-12-18T12:40:11;17.30;;;10.23;;
5507;SDS011;2776;51.046;6.772;2022-12-18T12:42:41;17.17;;;11.00;;
5507;SDS011;2776;51.046;6.772;2022-12-18T12:45:33;14.93;;;9.97;;
5507;SDS011;2776;51.046;6.772;2022-12-18T12:48:06;17.63;;;10.70;;
5507;SDS011;2776;51.046;6.772;2022-12-18T12:50:44;19.50;;;10.60;;
5507;SDS011;2776;51.046;6.772;2022-12-18T12:53:21;17.57;;;11.63;;
5507;SDS011;2776;51.046;6.772;2022-12-18T12:55:52;18.53;;;10.87;;
5507;SDS011;2776;51.046;6.772;2022-12-18T12:58:21;22.23;;;10.80;;
5507;SDS011;2776;51.046;6.772;2022-12-18T13:01:00;16.47;;;10.83;;
5507;SDS011;2776;51.046;6.772;2022-12-18T13:03:36;19.53;;;9.70;;
5507;SDS011;2776;51.046;6.772;2022-12-18T13:06:12;16.37;;;10.40;;
5507;SDS011;2776;51.046;6.772;2022-12-18T13:08:52;16.27;;;10.63;;
5507;SDS011;2776;51.046;6.772;2022-12-18T13:14:30;15.83;;;9.13;;
5507;SDS011;2776;51.046;6.772;2022-12-18T13:17:15;20.07;;;10.73;;
5507;SDS011;2776;51.046;6.772;2022-12-18T13:20:02;20.17;;;11.60;;
5507;SDS011;2776;51.046;6.772;2022-12-18T13:22:33;20.13;;;11.93;;
5507;SDS011;2776;51.046;6.772;2022-12-18T13:25:02;19.80;;;12.63;;
5507;SDS011;2776;51.046;6.772;2022-12-18T13:36:12;21.17;;;13.13;;
5507;SDS011;2776;51.046;6.772;2022-12-18T13:38:42;18.37;;;11.80;;
5507;SDS011;2776;51.046;6.772;2022-12-18T13:41:23;17.50;;;10.63;;
5507;SDS011;2776;51.046;6.772;2022-12-18T13:43:53;17.73;;;11.07;;
5507;SDS011;2776;51.046;6.772;2022-12-18T13:46:23;18.87;;;11.20;;
5507;SDS011;2776;51.046;6.772;2022-12-18T13:48:59;23.40;;;13.07;;
5507;SDS011;2776;51.046;6.772;2022-12-18T13:51:29;16.53;;;10.63;;
5507;SDS011;2776;51.046;6.772;2022-12-18T13:54:02;18.67;;;11.20;;
5507;SDS011;2776;51.046;6.772;2022-12-18T13:56:42;16.67;;;10.50;;
5507;SDS011;2776;51.046;6.772;2022-12-18T13:59:15;17.30;;;10.57;;
5507;SDS011;2776;51.046;6.772;2022-12-18T14:01:48;20.17;;;11.23;;
5507;SDS011;2776;51.046;6.772;2022-12-18T14:04:19;18.47;;;11.40;;
5507;SDS011;2776;51.046;6.772;2022-12-18T14:06:49;26.37;;;13.73;;
5507;SDS011;2776;51.046;6.772;2022-12-18T14:09:19;19.60;;;12.33;;
5507;SDS011;2776;51.046;6.772;2022-12-18T14:11:50;19.00;;;11.57;;
5507;SDS011;2776;51.046;6.772;2022-12-18T14:14:17;17.63;;;11.50;;
5507;SDS011;2776;51.046;6.772;2022-12-18T14:16:45;18.03;;;11.57;;
5507;SDS011;2776;51.046;6.772;2022-12-18T14:19:14;22.20;;;12.40;;
5507;SDS011;2776;51.046;6.772;2022-12-18T14:21:46;23.03;;;13.87;;
5507;SDS011;2776;51.046;6.772;2022-12-18T14:24:16;24.90;;;16.33;;
5507;SDS011;2776;51.046;6.772;2022-12-18T14:26:44;22.90;;;13.97;;
5507;SDS011;2776;51.046;6.772;2022-12-18T14:29:18;21.50;;;12.73;;
5507;SDS011;2776;51.046;6.772;2022-12-18T14:34:30;19.37;;;11.20;;
5507;SDS011;2776;51.046;6.772;2022-12-18T14:36:58;20.63;;;12.40;;
5507;SDS011;2776;51.046;6.772;2022-12-18T14:39:25;20.57;;;12.90;;
5507;SDS011;2776;51.046;6.772;2022-12-18T14:41:52;23.00;;;12.93;;
5507;SDS011;2776;51.046;6.772;2022-12-18T14:44:19;19.73;;;12.03;;
5507;SDS011;2776;51.046;6.772;2022-12-18T14:46:47;20.30;;;11.87;;
5507;SDS011;2776;51.046;6.772;2022-12-18T14:49:19;19.50;;;13.00;;
5507;SDS011;2776;51.046;6.772;2022-12-18T14:51:51;23.83;;;12.90;;
5507;SDS011;2776;51.046;6.772;2022-12-18T14:54:23;21.10;;;14.10;;
5507;SDS011;2776;51.046;6.772;2022-12-18T14:56:52;18.23;;;11.47;;
5507;SDS011;2776;51.046;6.772;2022-12-18T14:59:26;19.77;;;12.53;;
5507;SDS011;2776;51.046;6.772;2022-12-18T15:01:57;20.13;;;12.50;;
5507;SDS011;2776;51.046;6.772;2022-12-18T15:04:28;24.70;;;12.30;;
5507;SDS011;2776;51.046;6.772;2022-12-18T15:07:06;20.70;;;13.13;;
5507;SDS011;2776;51.046;6.772;2022-12-18T15:09:39;19.63;;;12.67;;
5507;SDS011;2776;51.046;6.772;2022-12-18T15:12:19;19.87;;;12.53;;
5507;SDS011;2776;51.046;6.772;2022-12-18T15:14:51;22.33;;;12.97;;
5507;SDS011;2776;51.046;6.772;2022-12-18T15:17:18;17.67;;;10.50;;
5507;SDS011;2776;51.046;6.772;2022-12-18T15:19:47;14.70;;;9.40;;
5507;SDS011;2776;51.046;6.772;2022-12-18T15:22:17;22.40;;;13.37;;
5507;SDS011;2776;51.046;6.772;2022-12-18T15:24:48;22.10;;;14.07;;
5507;SDS011;2776;51.046;6.772;2022-12-18T15:27:20;21.83;;;13.17;;
5507;SDS011;2776;51.046;6.772;2022-12-18T15:32:46;21.93;;;13.83;;